Huvudsida
METAR-TAF:

METAR-TAF

Flygplatser :

Fasa, Iran

latitud: 28-58N, longitud: 053-41E, höjd: 1383 m

Aktuellt väderrapport

Denna rapport gjordes för 48 minuter sedan, klockan 01:00 UTC
Stilla vind
Temperatur 7°C
Fuktighet 93%
Tryck 1018 hPa
Sikt: 7000 m
Spridda moln på en höjd av 4000 ft
Brutna moln på en höjd av 10000 ft

METAR: OISF 200100Z 00000KT 7000 SCT040 BKN100 07/06 Q1018 A3006

Tid: 05:18 (01:48 UTC)


TAF: saknas

Aktuella väderrapporter och prognoser från 4000 flygplatser (METAR- och TAF-rapporter).

De tillgängliga stationerna syns som gula och röda prickar på kartan.

För musen över prickarna för att se namnen på stationerna.

Klicka sedan för att få väderrapporter och prognoser.

För att ändra kartan: Klicka på de gröna knapparna med ett svart kors på för att zooma in; den gröna knappen med ett streck på för att zooma ut; eller på de gröna pilarna för angränsande kartor.


METAR-TAF: